sensor_id;sensor_type;location;lat;lon;timestamp;P1;durP1;ratioP1;P2;durP2;ratioP2
56373;SDS011;58212;47.034;7.376;2022-10-04T00:01:47;10.30;;;4.70;;
56373;SDS011;58212;47.034;7.376;2022-10-04T00:04:17;4.47;;;4.15;;
56373;SDS011;58212;47.034;7.376;2022-10-04T00:06:52;5.13;;;4.30;;
56373;SDS011;58212;47.034;7.376;2022-10-04T00:09:23;5.63;;;4.25;;
56373;SDS011;58212;47.034;7.376;2022-10-04T00:11:53;5.63;;;4.97;;
56373;SDS011;58212;47.034;7.376;2022-10-04T00:14:23;6.03;;;5.07;;
56373;SDS011;58212;47.034;7.376;2022-10-04T00:16:54;6.28;;;4.88;;
56373;SDS011;58212;47.034;7.376;2022-10-04T00:19:40;6.30;;;4.40;;
56373;SDS011;58212;47.034;7.376;2022-10-04T00:22:15;7.57;;;5.00;;
56373;SDS011;58212;47.034;7.376;2022-10-04T00:33:54;6.65;;;5.00;;
56373;SDS011;58212;47.034;7.376;2022-10-04T00:36:47;7.32;;;5.00;;
56373;SDS011;58212;47.034;7.376;2022-10-04T00:39:24;6.40;;;4.70;;
56373;SDS011;58212;47.034;7.376;2022-10-04T00:45:01;6.22;;;5.00;;
56373;SDS011;58212;47.034;7.376;2022-10-04T00:47:40;7.60;;;5.13;;
56373;SDS011;58212;47.034;7.376;2022-10-04T00:50:26;6.00;;;4.32;;
56373;SDS011;58212;47.034;7.376;2022-10-04T00:52:59;5.10;;;4.57;;
56373;SDS011;58212;47.034;7.376;2022-10-04T00:55:30;8.07;;;4.70;;
56373;SDS011;58212;47.034;7.376;2022-10-04T00:58:02;9.63;;;5.43;;
56373;SDS011;58212;47.034;7.376;2022-10-04T01:00:32;5.60;;;5.10;;
56373;SDS011;58212;47.034;7.376;2022-10-04T01:03:02;7.03;;;4.75;;
56373;SDS011;58212;47.034;7.376;2022-10-04T01:05:38;6.47;;;4.88;;
56373;SDS011;58212;47.034;7.376;2022-10-04T01:08:09;6.38;;;5.03;;
56373;SDS011;58212;47.034;7.376;2022-10-04T01:10:41;8.38;;;4.85;;
56373;SDS011;58212;47.034;7.376;2022-10-04T01:13:15;5.30;;;4.80;;
56373;SDS011;58212;47.034;7.376;2022-10-04T01:15:47;7.10;;;4.68;;
56373;SDS011;58212;47.034;7.376;2022-10-04T01:18:28;6.63;;;5.15;;
56373;SDS011;58212;47.034;7.376;2022-10-04T01:20:58;5.28;;;4.82;;
56373;SDS011;58212;47.034;7.376;2022-10-04T01:23:33;6.18;;;4.35;;
56373;SDS011;58212;47.034;7.376;2022-10-04T01:26:34;7.75;;;4.80;;
56373;SDS011;58212;47.034;7.376;2022-10-04T01:29:07;7.85;;;4.80;;
56373;SDS011;58212;47.034;7.376;2022-10-04T01:31:38;7.95;;;4.03;;
56373;SDS011;58212;47.034;7.376;2022-10-04T01:34:07;6.18;;;4.45;;
56373;SDS011;58212;47.034;7.376;2022-10-04T01:36:37;5.25;;;3.88;;
56373;SDS011;58212;47.034;7.376;2022-10-04T01:39:06;5.05;;;4.25;;
56373;SDS011;58212;47.034;7.376;2022-10-04T01:41:38;4.20;;;3.80;;
56373;SDS011;58212;47.034;7.376;2022-10-04T01:44:14;7.00;;;3.90;;
56373;SDS011;58212;47.034;7.376;2022-10-04T01:46:46;5.85;;;3.55;;
56373;SDS011;58212;47.034;7.376;2022-10-04T01:49:16;6.10;;;3.67;;
56373;SDS011;58212;47.034;7.376;2022-10-04T01:51:47;3.83;;;3.13;;
56373;SDS011;58212;47.034;7.376;2022-10-04T01:54:23;4.80;;;3.20;;
56373;SDS011;58212;47.034;7.376;2022-10-04T01:56:58;5.50;;;3.28;;
56373;SDS011;58212;47.034;7.376;2022-10-04T01:59:30;4.47;;;3.65;;
56373;SDS011;58212;47.034;7.376;2022-10-04T02:02:03;6.55;;;3.22;;
56373;SDS011;58212;47.034;7.376;2022-10-04T02:04:35;4.38;;;3.40;;
56373;SDS011;58212;47.034;7.376;2022-10-04T02:07:09;4.20;;;3.33;;
56373;SDS011;58212;47.034;7.376;2022-10-04T02:09:41;4.18;;;3.45;;
56373;SDS011;58212;47.034;7.376;2022-10-04T02:12:13;3.85;;;3.28;;
56373;SDS011;58212;47.034;7.376;2022-10-04T02:14:42;4.88;;;3.58;;
56373;SDS011;58212;47.034;7.376;2022-10-04T02:17:18;4.10;;;3.53;;
56373;SDS011;58212;47.034;7.376;2022-10-04T02:19:48;6.13;;;3.60;;
56373;SDS011;58212;47.034;7.376;2022-10-04T02:22:17;6.07;;;3.60;;
56373;SDS011;58212;47.034;7.376;2022-10-04T02:24:46;5.03;;;3.50;;
56373;SDS011;58212;47.034;7.376;2022-10-04T02:27:15;6.15;;;3.33;;
56373;SDS011;58212;47.034;7.376;2022-10-04T02:29:42;4.07;;;3.38;;
56373;SDS011;58212;47.034;7.376;2022-10-04T02:32:09;5.18;;;3.03;;
56373;SDS011;58212;47.034;7.376;2022-10-04T02:34:56;6.18;;;3.30;;
56373;SDS011;58212;47.034;7.376;2022-10-04T02:37:24;5.93;;;3.50;;
56373;SDS011;58212;47.034;7.376;2022-10-04T02:39:57;4.82;;;3.42;;
56373;SDS011;58212;47.034;7.376;2022-10-04T02:42:34;4.93;;;3.20;;
56373;SDS011;58212;47.034;7.376;2022-10-04T02:45:06;5.05;;;3.72;;
56373;SDS011;58212;47.034;7.376;2022-10-04T02:47:42;5.05;;;2.90;;
56373;SDS011;58212;47.034;7.376;2022-10-04T02:50:18;4.25;;;3.40;;
56373;SDS011;58212;47.034;7.376;2022-10-04T02:52:52;4.25;;;3.10;;
56373;SDS011;58212;47.034;7.376;2022-10-04T02:55:24;3.88;;;3.30;;
56373;SDS011;58212;47.034;7.376;2022-10-04T02:57:53;4.53;;;3.63;;
56373;SDS011;58212;47.034;7.376;2022-10-04T03:00:21;3.88;;;3.55;;
56373;SDS011;58212;47.034;7.376;2022-10-04T03:05:42;4.65;;;3.28;;
56373;SDS011;58212;47.034;7.376;2022-10-04T03:08:13;3.95;;;3.22;;
56373;SDS011;58212;47.034;7.376;2022-10-04T03:10:42;5.10;;;3.70;;
56373;SDS011;58212;47.034;7.376;2022-10-04T03:13:09;3.92;;;3.53;;
56373;SDS011;58212;47.034;7.376;2022-10-04T03:15:40;4.00;;;3.60;;
56373;SDS011;58212;47.034;7.376;2022-10-04T03:18:08;7.22;;;3.60;;
56373;SDS011;58212;47.034;7.376;2022-10-04T03:20:36;3.50;;;3.20;;
56373;SDS011;58212;47.034;7.376;2022-10-04T03:23:06;4.18;;;3.63;;
56373;SDS011;58212;47.034;7.376;2022-10-04T03:25:37;6.05;;;4.00;;
56373;SDS011;58212;47.034;7.376;2022-10-04T03:28:12;4.80;;;4.30;;
56373;SDS011;58212;47.034;7.376;2022-10-04T03:30:43;5.80;;;4.30;;
56373;SDS011;58212;47.034;7.376;2022-10-04T03:33:14;5.43;;;4.57;;
56373;SDS011;58212;47.034;7.376;2022-10-04T03:35:43;6.60;;;5.28;;
56373;SDS011;58212;47.034;7.376;2022-10-04T03:38:13;8.73;;;4.82;;
56373;SDS011;58212;47.034;7.376;2022-10-04T03:40:45;4.82;;;4.43;;
56373;SDS011;58212;47.034;7.376;2022-10-04T03:43:21;6.75;;;5.50;;
56373;SDS011;58212;47.034;7.376;2022-10-04T03:45:51;6.47;;;5.88;;
56373;SDS011;58212;47.034;7.376;2022-10-04T03:48:24;10.90;;;8.68;;
56373;SDS011;58212;47.034;7.376;2022-10-04T03:50:54;8.20;;;5.72;;
56373;SDS011;58212;47.034;7.376;2022-10-04T03:53:24;8.80;;;6.22;;
56373;SDS011;58212;47.034;7.376;2022-10-04T03:55:56;6.40;;;5.13;;
56373;SDS011;58212;47.034;7.376;2022-10-04T03:58:25;6.60;;;5.40;;
56373;SDS011;58212;47.034;7.376;2022-10-04T04:01:00;5.45;;;4.68;;
56373;SDS011;58212;47.034;7.376;2022-10-04T04:03:31;5.13;;;4.72;;
56373;SDS011;58212;47.034;7.376;2022-10-04T04:06:09;5.80;;;4.80;;
56373;SDS011;58212;47.034;7.376;2022-10-04T04:08:40;4.68;;;4.22;;
56373;SDS011;58212;47.034;7.376;2022-10-04T04:11:13;7.53;;;4.10;;
56373;SDS011;58212;47.034;7.376;2022-10-04T04:13:47;4.72;;;3.97;;
56373;SDS011;58212;47.034;7.376;2022-10-04T04:16:19;4.45;;;4.05;;
56373;SDS011;58212;47.034;7.376;2022-10-04T04:18:50;4.53;;;4.07;;
56373;SDS011;58212;47.034;7.376;2022-10-04T04:21:18;4.97;;;4.22;;
56373;SDS011;58212;47.034;7.376;2022-10-04T04:23:49;7.05;;;4.30;;
56373;SDS011;58212;47.034;7.376;2022-10-04T04:26:22;4.20;;;3.67;;
56373;SDS011;58212;47.034;7.376;2022-10-04T04:28:53;5.38;;;3.97;;
56373;SDS011;58212;47.034;7.376;2022-10-04T04:31:23;5.75;;;3.67;;
56373;SDS011;58212;47.034;7.376;2022-10-04T04:33:54;5.55;;;3.97;;
56373;SDS011;58212;47.034;7.376;2022-10-04T04:36:25;5.72;;;4.10;;
56373;SDS011;58212;47.034;7.376;2022-10-04T04:38:53;4.70;;;4.30;;
56373;SDS011;58212;47.034;7.376;2022-10-04T04:41:50;4.72;;;4.10;;
56373;SDS011;58212;47.034;7.376;2022-10-04T04:44:17;4.57;;;3.80;;
56373;SDS011;58212;47.034;7.376;2022-10-04T04:46:44;5.63;;;4.40;;
56373;SDS011;58212;47.034;7.376;2022-10-04T04:49:12;5.70;;;5.10;;
56373;SDS011;58212;47.034;7.376;2022-10-04T04:51:45;7.00;;;6.40;;
56373;SDS011;58212;47.034;7.376;2022-10-04T04:54:16;6.97;;;5.80;;
56373;SDS011;58212;47.034;7.376;2022-10-04T04:56:46;11.18;;;8.10;;
56373;SDS011;58212;47.034;7.376;2022-10-04T04:59:17;8.88;;;6.45;;
56373;SDS011;58212;47.034;7.376;2022-10-04T05:01:46;6.47;;;5.55;;
56373;SDS011;58212;47.034;7.376;2022-10-04T05:04:15;7.50;;;5.47;;
56373;SDS011;58212;47.034;7.376;2022-10-04T05:06:44;6.68;;;5.72;;
56373;SDS011;58212;47.034;7.376;2022-10-04T05:09:20;5.93;;;5.35;;
56373;SDS011;58212;47.034;7.376;2022-10-04T05:11:50;5.97;;;5.32;;
56373;SDS011;58212;47.034;7.376;2022-10-04T05:14:19;7.53;;;5.50;;
56373;SDS011;58212;47.034;7.376;2022-10-04T05:16:47;7.45;;;5.50;;
56373;SDS011;58212;47.034;7.376;2022-10-04T05:19:17;8.98;;;5.63;;
56373;SDS011;58212;47.034;7.376;2022-10-04T05:21:48;5.32;;;4.82;;
56373;SDS011;58212;47.034;7.376;2022-10-04T05:24:20;6.78;;;4.60;;
56373;SDS011;58212;47.034;7.376;2022-10-04T05:26:52;7.00;;;4.35;;
56373;SDS011;58212;47.034;7.376;2022-10-04T05:29:22;7.15;;;4.60;;
56373;SDS011;58212;47.034;7.376;2022-10-04T05:31:55;4.97;;;4.18;;
56373;SDS011;58212;47.034;7.376;2022-10-04T05:34:29;5.22;;;3.45;;
56373;SDS011;58212;47.034;7.376;2022-10-04T05:37:05;4.95;;;3.25;;
56373;SDS011;58212;47.034;7.376;2022-10-04T05:39:45;8.60;;;3.15;;
56373;SDS011;58212;47.034;7.376;2022-10-04T05:42:20;3.83;;;3.47;;
56373;SDS011;58212;47.034;7.376;2022-10-04T05:44:52;4.05;;;3.65;;
56373;SDS011;58212;47.034;7.376;2022-10-04T05:47:20;4.13;;;3.83;;
56373;SDS011;58212;47.034;7.376;2022-10-04T05:49:52;6.47;;;3.42;;
56373;SDS011;58212;47.034;7.376;2022-10-04T05:52:25;6.40;;;3.50;;
56373;SDS011;58212;47.034;7.376;2022-10-04T05:55:11;4.88;;;3.30;;
56373;SDS011;58212;47.034;7.376;2022-10-04T05:57:57;4.60;;;3.20;;
56373;SDS011;58212;47.034;7.376;2022-10-04T06:00:44;5.47;;;3.25;;
56373;SDS011;58212;47.034;7.376;2022-10-04T06:03:28;5.65;;;3.70;;
56373;SDS011;58212;47.034;7.376;2022-10-04T06:06:11;6.45;;;4.97;;
56373;SDS011;58212;47.034;7.376;2022-10-04T06:08:46;7.40;;;5.75;;
56373;SDS011;58212;47.034;7.376;2022-10-04T06:11:27;7.72;;;6.45;;
56373;SDS011;58212;47.034;7.376;2022-10-04T06:14:14;9.40;;;8.48;;
56373;SDS011;58212;47.034;7.376;2022-10-04T06:17:06;9.57;;;8.15;;
56373;SDS011;58212;47.034;7.376;2022-10-04T06:19:54;10.75;;;8.23;;
56373;SDS011;58212;47.034;7.376;2022-10-04T06:22:41;7.43;;;6.57;;
56373;SDS011;58212;47.034;7.376;2022-10-04T06:25:11;9.85;;;6.70;;
56373;SDS011;58212;47.034;7.376;2022-10-04T06:27:42;9.27;;;6.82;;
56373;SDS011;58212;47.034;7.376;2022-10-04T06:30:19;10.57;;;7.00;;
56373;SDS011;58212;47.034;7.376;2022-10-04T06:33:02;6.93;;;6.15;;
56373;SDS011;58212;47.034;7.376;2022-10-04T06:35:48;7.03;;;6.32;;
56373;SDS011;58212;47.034;7.376;2022-10-04T06:38:34;8.32;;;5.93;;
56373;SDS011;58212;47.034;7.376;2022-10-04T06:41:29;10.45;;;7.90;;
56373;SDS011;58212;47.034;7.376;2022-10-04T06:44:25;8.48;;;6.00;;
56373;SDS011;58212;47.034;7.376;2022-10-04T06:47:17;6.30;;;5.63;;
56373;SDS011;58212;47.034;7.376;2022-10-04T06:49:55;9.90;;;5.35;;
56373;SDS011;58212;47.034;7.376;2022-10-04T06:52:38;6.75;;;5.38;;
56373;SDS011;58212;47.034;7.376;2022-10-04T06:58:19;6.57;;;6.03;;
56373;SDS011;58212;47.034;7.376;2022-10-04T07:00:58;6.43;;;5.82;;
56373;SDS011;58212;47.034;7.376;2022-10-04T07:03:33;6.97;;;5.90;;
56373;SDS011;58212;47.034;7.376;2022-10-04T07:06:06;8.60;;;5.93;;
56373;SDS011;58212;47.034;7.376;2022-10-04T07:08:37;7.78;;;6.72;;
56373;SDS011;58212;47.034;7.376;2022-10-04T07:11:11;9.60;;;6.20;;
56373;SDS011;58212;47.034;7.376;2022-10-04T07:13:42;6.68;;;5.65;;
56373;SDS011;58212;47.034;7.376;2022-10-04T07:16:23;6.45;;;5.55;;
56373;SDS011;58212;47.034;7.376;2022-10-04T07:18:59;7.60;;;5.53;;
56373;SDS011;58212;47.034;7.376;2022-10-04T07:21:35;7.82;;;6.05;;
56373;SDS011;58212;47.034;7.376;2022-10-04T07:24:08;7.18;;;5.43;;
56373;SDS011;58212;47.034;7.376;2022-10-04T07:26:44;6.25;;;5.65;;
56373;SDS011;58212;47.034;7.376;2022-10-04T07:29:14;8.55;;;5.97;;
56373;SDS011;58212;47.034;7.376;2022-10-04T07:31:46;6.78;;;5.38;;
56373;SDS011;58212;47.034;7.376;2022-10-04T07:34:21;6.53;;;5.60;;
56373;SDS011;58212;47.034;7.376;2022-10-04T07:36:52;6.22;;;5.65;;
56373;SDS011;58212;47.034;7.376;2022-10-04T07:39:23;6.43;;;5.82;;
56373;SDS011;58212;47.034;7.376;2022-10-04T07:41:54;5.45;;;4.95;;
56373;SDS011;58212;47.034;7.376;2022-10-04T07:44:25;6.97;;;5.85;;
56373;SDS011;58212;47.034;7.376;2022-10-04T07:47:04;6.95;;;5.68;;
56373;SDS011;58212;47.034;7.376;2022-10-04T07:49:40;6.47;;;5.88;;
56373;SDS011;58212;47.034;7.376;2022-10-04T07:52:19;7.05;;;6.10;;
56373;SDS011;58212;47.034;7.376;2022-10-04T07:55:15;6.93;;;5.60;;
56373;SDS011;58212;47.034;7.376;2022-10-04T07:57:50;8.48;;;5.60;;
56373;SDS011;58212;47.034;7.376;2022-10-04T08:00:24;7.25;;;5.57;;
56373;SDS011;58212;47.034;7.376;2022-10-04T08:03:12;6.85;;;5.65;;
56373;SDS011;58212;47.034;7.376;2022-10-04T08:05:57;6.70;;;5.35;;
56373;SDS011;58212;47.034;7.376;2022-10-04T08:08:38;6.10;;;5.40;;
56373;SDS011;58212;47.034;7.376;2022-10-04T08:11:18;8.45;;;5.40;;
56373;SDS011;58212;47.034;7.376;2022-10-04T08:13:55;6.78;;;6.18;;
56373;SDS011;58212;47.034;7.376;2022-10-04T08:16:32;7.38;;;5.65;;
56373;SDS011;58212;47.034;7.376;2022-10-04T08:19:17;7.00;;;4.95;;
56373;SDS011;58212;47.034;7.376;2022-10-04T08:21:58;5.43;;;4.88;;
56373;SDS011;58212;47.034;7.376;2022-10-04T08:24:28;5.53;;;4.85;;
56373;SDS011;58212;47.034;7.376;2022-10-04T08:27:17;5.25;;;4.72;;
56373;SDS011;58212;47.034;7.376;2022-10-04T08:30:10;5.85;;;4.78;;
56373;SDS011;58212;47.034;7.376;2022-10-04T08:32:44;5.38;;;4.70;;
56373;SDS011;58212;47.034;7.376;2022-10-04T08:35:27;5.55;;;5.05;;
56373;SDS011;58212;47.034;7.376;2022-10-04T08:41:15;5.35;;;4.95;;
56373;SDS011;58212;47.034;7.376;2022-10-04T08:44:10;6.05;;;5.43;;
56373;SDS011;58212;47.034;7.376;2022-10-04T08:47:06;5.13;;;4.72;;
56373;SDS011;58212;47.034;7.376;2022-10-04T08:53:05;6.03;;;4.78;;
56373;SDS011;58212;47.034;7.376;2022-10-04T08:56:08;6.28;;;4.07;;
56373;SDS011;58212;47.034;7.376;2022-10-04T08:58:49;7.97;;;4.43;;
56373;SDS011;58212;47.034;7.376;2022-10-04T09:01:50;5.57;;;5.07;;
56373;SDS011;58212;47.034;7.376;2022-10-04T09:04:36;6.80;;;5.53;;
56373;SDS011;58212;47.034;7.376;2022-10-04T09:07:22;5.93;;;5.40;;
56373;SDS011;58212;47.034;7.376;2022-10-04T09:10:13;6.60;;;5.30;;
56373;SDS011;58212;47.034;7.376;2022-10-04T09:13:04;6.28;;;5.65;;
56373;SDS011;58212;47.034;7.376;2022-10-04T09:15:52;6.07;;;5.53;;
56373;SDS011;58212;47.034;7.376;2022-10-04T09:18:22;5.78;;;5.22;;
56373;SDS011;58212;47.034;7.376;2022-10-04T09:21:07;6.00;;;5.00;;
56373;SDS011;58212;47.034;7.376;2022-10-04T09:26:46;10.32;;;6.07;;
56373;SDS011;58212;47.034;7.376;2022-10-04T09:29:26;7.15;;;5.60;;
56373;SDS011;58212;47.034;7.376;2022-10-04T09:32:27;7.32;;;5.45;;
56373;SDS011;58212;47.034;7.376;2022-10-04T09:35:24;6.78;;;5.18;;
56373;SDS011;58212;47.034;7.376;2022-10-04T09:38:04;8.75;;;5.45;;
56373;SDS011;58212;47.034;7.376;2022-10-04T09:40:56;5.60;;;5.20;;
56373;SDS011;58212;47.034;7.376;2022-10-04T09:43:56;5.97;;;4.82;;
56373;SDS011;58212;47.034;7.376;2022-10-04T09:47:00;6.43;;;4.90;;
56373;SDS011;58212;47.034;7.376;2022-10-04T09:49:44;5.45;;;4.70;;
56373;SDS011;58212;47.034;7.376;2022-10-04T09:52:34;6.07;;;5.18;;
56373;SDS011;58212;47.034;7.376;2022-10-04T09:55:21;5.32;;;4.63;;
56373;SDS011;58212;47.034;7.376;2022-10-04T09:58:09;5.90;;;4.80;;
56373;SDS011;58212;47.034;7.376;2022-10-04T10:01:04;5.70;;;5.18;;
56373;SDS011;58212;47.034;7.376;2022-10-04T10:03:45;4.95;;;4.45;;
56373;SDS011;58212;47.034;7.376;2022-10-04T10:06:36;5.50;;;4.28;;
56373;SDS011;58212;47.034;7.376;2022-10-04T10:09:22;4.97;;;4.57;;
56373;SDS011;58212;47.034;7.376;2022-10-04T10:12:15;5.38;;;4.88;;
56373;SDS011;58212;47.034;7.376;2022-10-04T10:15:22;5.10;;;4.28;;
56373;SDS011;58212;47.034;7.376;2022-10-04T10:17:57;4.45;;;4.05;;
56373;SDS011;58212;47.034;7.376;2022-10-04T10:20:38;5.72;;;5.20;;
56373;SDS011;58212;47.034;7.376;2022-10-04T10:23:26;5.85;;;5.35;;
56373;SDS011;58212;47.034;7.376;2022-10-04T10:26:18;6.03;;;5.00;;
56373;SDS011;58212;47.034;7.376;2022-10-04T10:29:02;5.40;;;4.90;;
56373;SDS011;58212;47.034;7.376;2022-10-04T10:32:01;5.00;;;3.92;;
56373;SDS011;58212;47.034;7.376;2022-10-04T10:34:56;4.03;;;3.72;;
56373;SDS011;58212;47.034;7.376;2022-10-04T10:37:45;4.88;;;4.40;;
56373;SDS011;58212;47.034;7.376;2022-10-04T10:40:38;4.60;;;4.10;;
56373;SDS011;58212;47.034;7.376;2022-10-04T10:43:21;6.45;;;5.65;;
56373;SDS011;58212;47.034;7.376;2022-10-04T10:46:23;8.98;;;6.30;;
56373;SDS011;58212;47.034;7.376;2022-10-04T10:49:07;5.93;;;4.80;;
56373;SDS011;58212;47.034;7.376;2022-10-04T10:52:12;4.40;;;4.00;;
56373;SDS011;58212;47.034;7.376;2022-10-04T10:55:11;4.93;;;4.47;;
56373;SDS011;58212;47.034;7.376;2022-10-04T10:57:58;4.60;;;4.20;;
56373;SDS011;58212;47.034;7.376;2022-10-04T11:00:48;4.45;;;4.00;;
56373;SDS011;58212;47.034;7.376;2022-10-04T11:06:37;16.25;;;7.22;;
56373;SDS011;58212;47.034;7.376;2022-10-04T11:09:49;4.47;;;4.07;;
56373;SDS011;58212;47.034;7.376;2022-10-04T11:15:38;5.93;;;4.20;;
56373;SDS011;58212;47.034;7.376;2022-10-04T11:18:26;4.63;;;4.32;;
56373;SDS011;58212;47.034;7.376;2022-10-04T11:21:47;5.05;;;4.65;;
56373;SDS011;58212;47.034;7.376;2022-10-04T11:24:39;5.10;;;4.03;;
56373;SDS011;58212;47.034;7.376;2022-10-04T11:27:23;4.20;;;3.90;;
56373;SDS011;58212;47.034;7.376;2022-10-04T11:30:14;4.30;;;3.90;;
56373;SDS011;58212;47.034;7.376;2022-10-04T11:36:12;4.03;;;3.72;;
56373;SDS011;58212;47.034;7.376;2022-10-04T11:39:00;5.57;;;4.20;;
56373;SDS011;58212;47.034;7.376;2022-10-04T11:41:38;4.45;;;3.85;;
56373;SDS011;58212;47.034;7.376;2022-10-04T11:47:17;4.05;;;3.72;;
56373;SDS011;58212;47.034;7.376;2022-10-04T11:50:02;4.47;;;4.07;;
56373;SDS011;58212;47.034;7.376;2022-10-04T11:52:52;5.80;;;4.45;;
56373;SDS011;58212;47.034;7.376;2022-10-04T11:55:49;4.95;;;4.40;;
56373;SDS011;58212;47.034;7.376;2022-10-04T11:58:34;5.97;;;4.82;;
56373;SDS011;58212;47.034;7.376;2022-10-04T12:01:28;5.15;;;4.65;;
56373;SDS011;58212;47.034;7.376;2022-10-04T12:04:18;4.60;;;4.20;;
56373;SDS011;58212;47.034;7.376;2022-10-04T12:07:20;5.40;;;5.00;;
56373;SDS011;58212;47.034;7.376;2022-10-04T12:09:58;4.95;;;4.45;;
56373;SDS011;58212;47.034;7.376;2022-10-04T12:12:45;5.15;;;4.75;;
56373;SDS011;58212;47.034;7.376;2022-10-04T12:15:41;5.55;;;5.03;;
56373;SDS011;58212;47.034;7.376;2022-10-04T12:21:48;5.30;;;4.90;;
56373;SDS011;58212;47.034;7.376;2022-10-04T12:24:52;5.80;;;5.28;;
56373;SDS011;58212;47.034;7.376;2022-10-04T12:27:59;4.93;;;4.55;;
56373;SDS011;58212;47.034;7.376;2022-10-04T12:30:52;6.00;;;5.50;;
56373;SDS011;58212;47.034;7.376;2022-10-04T12:33:36;5.45;;;4.75;;
56373;SDS011;58212;47.034;7.376;2022-10-04T12:36:12;6.63;;;4.88;;
56373;SDS011;58212;47.034;7.376;2022-10-04T12:41:50;6.05;;;5.47;;
56373;SDS011;58212;47.034;7.376;2022-10-04T12:44:32;6.15;;;5.05;;
56373;SDS011;58212;47.034;7.376;2022-10-04T12:50:17;5.22;;;4.82;;
56373;SDS011;58212;47.034;7.376;2022-10-04T12:52:58;5.03;;;4.63;;
56373;SDS011;58212;47.034;7.376;2022-10-04T12:55:45;5.35;;;4.85;;
56373;SDS011;58212;47.034;7.376;2022-10-04T12:58:22;5.32;;;4.85;;
56373;SDS011;58212;47.034;7.376;2022-10-04T13:00:55;5.25;;;4.78;;
56373;SDS011;58212;47.034;7.376;2022-10-04T13:03:30;5.95;;;4.30;;
56373;SDS011;58212;47.034;7.376;2022-10-04T13:06:08;5.57;;;4.80;;
56373;SDS011;58212;47.034;7.376;2022-10-04T13:08:44;5.25;;;4.85;;
56373;SDS011;58212;47.034;7.376;2022-10-04T13:11:37;5.78;;;5.28;;
56373;SDS011;58212;47.034;7.376;2022-10-04T13:14:28;5.80;;;5.30;;
56373;SDS011;58212;47.034;7.376;2022-10-04T13:17:07;6.07;;;5.25;;
56373;SDS011;58212;47.034;7.376;2022-10-04T13:19:47;6.00;;;5.15;;
56373;SDS011;58212;47.034;7.376;2022-10-04T13:22:40;5.85;;;5.15;;
56373;SDS011;58212;47.034;7.376;2022-10-04T13:28:10;6.53;;;5.90;;
56373;SDS011;58212;47.034;7.376;2022-10-04T13:30:49;6.28;;;5.70;;
56373;SDS011;58212;47.034;7.376;2022-10-04T13:33:22;5.72;;;5.22;;
56373;SDS011;58212;47.034;7.376;2022-10-04T13:35:57;5.68;;;5.28;;
56373;SDS011;58212;47.034;7.376;2022-10-04T13:38:35;5.47;;;4.97;;
56373;SDS011;58212;47.034;7.376;2022-10-04T13:41:23;6.10;;;5.32;;
56373;SDS011;58212;47.034;7.376;2022-10-04T13:47:14;5.95;;;5.28;;
56373;SDS011;58212;47.034;7.376;2022-10-04T13:49:59;5.95;;;5.45;;
56373;SDS011;58212;47.034;7.376;2022-10-04T13:52:42;5.65;;;5.05;;
56373;SDS011;58212;47.034;7.376;2022-10-04T13:55:34;6.18;;;5.43;;
56373;SDS011;58212;47.034;7.376;2022-10-04T13:58:30;5.15;;;4.75;;
56373;SDS011;58212;47.034;7.376;2022-10-04T14:01:16;5.53;;;5.03;;
56373;SDS011;58212;47.034;7.376;2022-10-04T14:04:12;10.48;;;5.55;;
56373;SDS011;58212;47.034;7.376;2022-10-04T14:09:59;5.75;;;5.25;;
56373;SDS011;58212;47.034;7.376;2022-10-04T14:12:39;5.57;;;5.18;;
56373;SDS011;58212;47.034;7.376;2022-10-04T14:15:47;5.53;;;5.10;;
56373;SDS011;58212;47.034;7.376;2022-10-04T14:18:32;5.90;;;4.95;;
56373;SDS011;58212;47.034;7.376;2022-10-04T14:24:28;10.70;;;5.10;;
56373;SDS011;58212;47.034;7.376;2022-10-04T14:27:32;7.28;;;5.22;;
56373;SDS011;58212;47.034;7.376;2022-10-04T14:30:21;4.82;;;3.97;;
56373;SDS011;58212;47.034;7.376;2022-10-04T14:36:05;8.02;;;4.20;;
56373;SDS011;58212;47.034;7.376;2022-10-04T14:39:11;4.82;;;4.32;;
56373;SDS011;58212;47.034;7.376;2022-10-04T14:45:01;5.05;;;4.20;;
56373;SDS011;58212;47.034;7.376;2022-10-04T14:48:06;11.77;;;4.75;;
56373;SDS011;58212;47.034;7.376;2022-10-04T14:50:53;6.10;;;3.67;;
56373;SDS011;58212;47.034;7.376;2022-10-04T14:53:41;4.15;;;3.75;;
56373;SDS011;58212;47.034;7.376;2022-10-04T14:56:28;3.78;;;3.42;;
56373;SDS011;58212;47.034;7.376;2022-10-04T14:59:26;6.13;;;4.25;;
56373;SDS011;58212;47.034;7.376;2022-10-04T15:05:06;7.13;;;4.00;;
56373;SDS011;58212;47.034;7.376;2022-10-04T15:08:07;5.85;;;3.92;;
56373;SDS011;58212;47.034;7.376;2022-10-04T15:10:54;5.20;;;3.63;;
56373;SDS011;58212;47.034;7.376;2022-10-04T15:13:26;6.10;;;3.50;;
56373;SDS011;58212;47.034;7.376;2022-10-04T15:16:04;4.75;;;3.70;;
56373;SDS011;58212;47.034;7.376;2022-10-04T15:18:45;5.32;;;3.78;;
56373;SDS011;58212;47.034;7.376;2022-10-04T15:21:31;6.45;;;3.33;;
56373;SDS011;58212;47.034;7.376;2022-10-04T15:24:17;3.63;;;3.33;;
56373;SDS011;58212;47.034;7.376;2022-10-04T15:26:57;4.88;;;3.08;;
56373;SDS011;58212;47.034;7.376;2022-10-04T15:29:50;6.80;;;3.20;;
56373;SDS011;58212;47.034;7.376;2022-10-04T15:32:28;3.08;;;2.80;;
56373;SDS011;58212;47.034;7.376;2022-10-04T15:35:05;4.05;;;2.67;;
56373;SDS011;58212;47.034;7.376;2022-10-04T15:37:45;4.25;;;2.75;;
56373;SDS011;58212;47.034;7.376;2022-10-04T15:40:23;7.53;;;3.05;;
56373;SDS011;58212;47.034;7.376;2022-10-04T15:43:14;6.30;;;2.92;;
56373;SDS011;58212;47.034;7.376;2022-10-04T15:45:48;6.43;;;3.10;;
56373;SDS011;58212;47.034;7.376;2022-10-04T15:48:27;7.75;;;2.90;;
56373;SDS011;58212;47.034;7.376;2022-10-04T15:51:05;11.00;;;3.50;;
56373;SDS011;58212;47.034;7.376;2022-10-04T15:53:41;5.50;;;2.95;;
56373;SDS011;58212;47.034;7.376;2022-10-04T15:56:43;5.45;;;3.00;;
56373;SDS011;58212;47.034;7.376;2022-10-04T15:59:23;6.65;;;2.78;;
56373;SDS011;58212;47.034;7.376;2022-10-04T16:02:01;8.98;;;2.85;;
56373;SDS011;58212;47.034;7.376;2022-10-04T16:04:44;8.98;;;3.03;;
56373;SDS011;58212;47.034;7.376;2022-10-04T16:07:28;12.65;;;2.95;;
56373;SDS011;58212;47.034;7.376;2022-10-04T16:10:15;13.82;;;3.17;;
56373;SDS011;58212;47.034;7.376;2022-10-04T16:12:59;5.32;;;2.70;;
56373;SDS011;58212;47.034;7.376;2022-10-04T16:15:44;6.03;;;2.70;;
56373;SDS011;58212;47.034;7.376;2022-10-04T16:18:24;5.97;;;3.08;;
56373;SDS011;58212;47.034;7.376;2022-10-04T16:21:03;8.77;;;3.10;;
56373;SDS011;58212;47.034;7.376;2022-10-04T16:23:37;9.32;;;3.08;;
56373;SDS011;58212;47.034;7.376;2022-10-04T16:26:08;11.13;;;3.45;;
56373;SDS011;58212;47.034;7.376;2022-10-04T16:31:47;7.15;;;2.80;;
56373;SDS011;58212;47.034;7.376;2022-10-04T16:34:27;7.18;;;2.80;;
56373;SDS011;58212;47.034;7.376;2022-10-04T16:37:11;5.72;;;2.80;;
56373;SDS011;58212;47.034;7.376;2022-10-04T16:39:48;4.55;;;2.78;;
56373;SDS011;58212;47.034;7.376;2022-10-04T16:42:37;6.97;;;2.72;;
56373;SDS011;58212;47.034;7.376;2022-10-04T16:45:29;5.13;;;2.63;;
56373;SDS011;58212;47.034;7.376;2022-10-04T16:48:21;6.35;;;3.05;;
56373;SDS011;58212;47.034;7.376;2022-10-04T16:51:05;5.57;;;2.92;;
56373;SDS011;58212;47.034;7.376;2022-10-04T16:53:52;9.18;;;2.70;;
56373;SDS011;58212;47.034;7.376;2022-10-04T16:56:25;4.03;;;2.47;;
56373;SDS011;58212;47.034;7.376;2022-10-04T16:58:55;5.18;;;2.65;;
56373;SDS011;58212;47.034;7.376;2022-10-04T17:04:32;5.35;;;2.40;;
56373;SDS011;58212;47.034;7.376;2022-10-04T17:07:17;5.35;;;2.75;;
56373;SDS011;58212;47.034;7.376;2022-10-04T17:09:53;5.85;;;2.67;;
56373;SDS011;58212;47.034;7.376;2022-10-04T17:12:34;3.47;;;2.50;;
56373;SDS011;58212;47.034;7.376;2022-10-04T17:15:23;3.78;;;2.47;;
56373;SDS011;58212;47.034;7.376;2022-10-04T17:18:11;2.63;;;2.33;;
56373;SDS011;58212;47.034;7.376;2022-10-04T17:20:50;3.88;;;2.50;;
56373;SDS011;58212;47.034;7.376;2022-10-04T17:26:46;5.43;;;2.58;;